createdAt,value
2023-04-28T00:02:40.711Z,4.00
2023-04-28T00:06:04.868Z,4.53
2023-04-28T00:09:28.514Z,4.83
2023-04-28T00:12:53.914Z,5.07
2023-04-28T00:16:17.536Z,4.20
2023-04-28T00:19:41.212Z,4.90
2023-04-28T00:23:04.728Z,4.00
2023-04-28T00:26:28.335Z,4.97
2023-04-28T00:29:53.357Z,4.80
2023-04-28T00:33:16.979Z,3.67
2023-04-28T00:36:40.566Z,4.00
2023-04-28T00:40:04.315Z,4.20
2023-04-28T00:43:28.039Z,3.80
2023-04-28T00:46:53.081Z,3.83
2023-04-28T00:50:18.128Z,4.10
2023-04-28T00:53:44.145Z,4.40
2023-04-28T00:57:08.565Z,4.90
2023-04-28T01:00:32.106Z,4.57
2023-04-28T01:03:57.325Z,4.43
2023-04-28T01:07:21.511Z,4.57
2023-04-28T01:10:45.658Z,4.57
2023-04-28T01:14:19.958Z,4.33
2023-04-28T01:17:44.242Z,4.37
2023-04-28T01:21:09.280Z,4.53
2023-04-28T01:24:34.403Z,4.50
2023-04-28T01:28:01.652Z,4.07
2023-04-28T01:31:25.422Z,4.63
2023-04-28T01:34:49.009Z,4.73
2023-04-28T01:38:12.589Z,3.80
2023-04-28T01:41:37.595Z,4.70
2023-04-28T01:45:01.260Z,5.57
2023-04-28T01:48:24.835Z,4.90
2023-04-28T01:51:48.382Z,5.20
2023-04-28T01:55:11.906Z,5.77
2023-04-28T01:58:37.553Z,5.27
2023-04-28T02:02:02.164Z,5.30
2023-04-28T02:05:26.701Z,5.33
2023-04-28T02:08:50.637Z,4.70
2023-04-28T02:12:14.220Z,5.67
2023-04-28T02:15:42.689Z,5.53
2023-04-28T02:19:06.564Z,5.93
2023-04-28T02:22:30.283Z,5.13
2023-04-28T02:26:03.552Z,6.03
2023-04-28T02:29:27.913Z,7.70
2023-04-28T02:32:52.920Z,6.13
2023-04-28T02:36:16.485Z,5.60
2023-04-28T02:39:40.083Z,5.60
2023-04-28T02:43:03.604Z,6.60
2023-04-28T02:46:27.165Z,5.30
2023-04-28T02:49:52.247Z,6.20
2023-04-28T02:53:19.277Z,6.70
2023-04-28T02:56:42.901Z,5.83
2023-04-28T03:00:08.392Z,5.80
2023-04-28T03:03:39.779Z,6.13
2023-04-28T03:07:04.940Z,6.37
2023-04-28T03:10:28.497Z,7.10
2023-04-28T03:13:52.120Z,7.20
2023-04-28T03:17:15.752Z,6.70
2023-04-28T03:20:39.474Z,7.47
2023-04-28T03:24:05.695Z,7.40
2023-04-28T03:27:30.151Z,7.90
2023-04-28T03:30:54.392Z,7.23
2023-04-28T03:34:18.332Z,7.00
2023-04-28T03:37:42.555Z,6.67
2023-04-28T03:41:07.587Z,6.53
2023-04-28T03:45:11.289Z,7.50
2023-04-28T03:48:35.418Z,6.20
2023-04-28T03:51:59.020Z,7.60
2023-04-28T03:55:23.158Z,6.80
2023-04-28T03:58:49.480Z,6.80
2023-04-28T04:02:13.748Z,6.13
2023-04-28T04:05:41.404Z,7.60
2023-04-28T04:09:08.281Z,6.87
2023-04-28T04:12:32.905Z,7.70
2023-04-28T04:15:59.088Z,7.57
2023-04-28T04:19:26.286Z,7.53
2023-04-28T04:22:51.035Z,7.70
2023-04-28T04:26:14.806Z,7.20
2023-04-28T04:29:38.726Z,8.00
2023-04-28T04:33:09.818Z,7.60
2023-04-28T04:36:33.937Z,6.37
2023-04-28T04:39:57.599Z,9.13
2023-04-28T04:43:21.351Z,8.27
2023-04-28T04:46:48.088Z,7.90
2023-04-28T04:50:13.940Z,8.30
2023-04-28T04:53:37.657Z,8.17
2023-04-28T04:57:01.775Z,8.37
2023-04-28T05:00:54.682Z,9.07
2023-04-28T05:04:18.760Z,8.50
2023-04-28T05:07:44.359Z,9.03
2023-04-28T05:11:08.044Z,9.73
2023-04-28T05:14:31.879Z,8.93
2023-04-28T05:17:55.684Z,8.13
2023-04-28T05:21:19.505Z,7.93
2023-04-28T05:24:44.444Z,10.23
2023-04-28T05:28:10.987Z,9.10
2023-04-28T05:31:34.924Z,8.40
2023-04-28T05:34:58.663Z,8.80
2023-04-28T05:38:23.436Z,8.73
2023-04-28T05:41:49.549Z,9.13
2023-04-28T05:45:14.206Z,8.20
2023-04-28T05:48:38.499Z,7.90
2023-04-28T05:52:02.148Z,8.17
2023-04-28T05:55:25.934Z,8.30
2023-04-28T05:58:51.628Z,8.03
2023-04-28T06:02:15.258Z,9.33
2023-04-28T06:05:39.857Z,11.33
2023-04-28T06:09:04.825Z,7.70
2023-04-28T06:12:32.131Z,7.47
2023-04-28T06:15:57.357Z,7.27
2023-04-28T06:19:21.084Z,9.07
2023-04-28T06:22:46.176Z,9.20
2023-04-28T06:26:10.110Z,9.20
2023-04-28T06:29:36.019Z,9.63
2023-04-28T06:33:01.137Z,9.70
2023-04-28T06:36:24.765Z,10.07
2023-04-28T06:39:48.366Z,9.30
2023-04-28T06:43:13.030Z,10.07
2023-04-28T06:46:42.110Z,8.33
2023-04-28T06:50:09.627Z,9.93
2023-04-28T06:53:33.754Z,8.93
2023-04-28T06:56:57.359Z,9.40
2023-04-28T07:00:21.999Z,10.43
2023-04-28T07:03:46.576Z,9.70
2023-04-28T07:07:13.050Z,9.90
2023-04-28T07:10:36.818Z,9.70
2023-04-28T07:14:00.452Z,8.50
2023-04-28T07:17:24.157Z,9.30
2023-04-28T07:20:48.191Z,9.67
2023-04-28T07:24:13.279Z,9.83
2023-04-28T07:27:36.892Z,8.70
2023-04-28T07:31:01.215Z,9.17
2023-04-28T07:34:24.945Z,9.27
2023-04-28T07:37:48.535Z,10.10
2023-04-28T07:41:13.793Z,9.20
2023-04-28T07:44:37.582Z,10.67
2023-04-28T07:48:01.378Z,9.00
2023-04-28T07:51:24.971Z,9.00
2023-04-28T07:54:48.895Z,9.17
2023-04-28T07:58:14.190Z,8.97
2023-04-28T08:01:37.917Z,10.10
2023-04-28T08:05:02.616Z,9.67
2023-04-28T08:08:26.573Z,10.53
2023-04-28T08:11:50.262Z,9.33
2023-04-28T08:15:16.691Z,9.53
2023-04-28T08:18:41.962Z,8.73
2023-04-28T08:22:07.226Z,9.20
2023-04-28T08:25:30.990Z,8.90
2023-04-28T08:28:54.570Z,9.40
2023-04-28T08:32:19.806Z,9.40
2023-04-28T08:35:43.659Z,9.40
2023-04-28T08:39:08.551Z,8.33
2023-04-28T08:42:32.498Z,8.07
2023-04-28T08:45:56.292Z,8.57
2023-04-28T08:49:29.001Z,8.37
2023-04-28T08:52:54.482Z,9.90
2023-04-28T08:56:19.929Z,9.20
2023-04-28T08:59:43.510Z,8.80
2023-04-28T09:03:09.030Z,8.23
2023-04-28T09:06:37.248Z,9.67
2023-04-28T09:10:19.409Z,8.53
2023-04-28T09:13:43.115Z,7.77
2023-04-28T09:17:13.149Z,7.90
2023-04-28T09:20:37.615Z,8.40
2023-04-28T09:24:02.531Z,8.63
2023-04-28T09:27:29.101Z,9.90
2023-04-28T09:30:52.927Z,8.67
2023-04-28T09:34:16.735Z,8.87
2023-04-28T09:37:40.650Z,9.40
2023-04-28T09:41:05.839Z,9.07
2023-04-28T09:44:29.683Z,10.00
2023-04-28T09:47:53.696Z,10.57
2023-04-28T09:51:22.271Z,10.10
2023-04-28T09:54:47.437Z,10.43
2023-04-28T09:58:15.437Z,8.13
2023-04-28T10:01:41.337Z,9.23
2023-04-28T10:05:08.953Z,9.20
2023-04-28T10:08:32.721Z,9.37
2023-04-28T10:11:56.479Z,10.27
2023-04-28T10:15:22.216Z,8.30
2023-04-28T10:18:47.620Z,8.63
2023-04-28T10:22:29.606Z,7.77
2023-04-28T10:25:58.109Z,8.70
2023-04-28T10:29:25.793Z,8.47
2023-04-28T10:33:27.302Z,8.77
2023-04-28T10:36:52.682Z,7.30
2023-04-28T10:40:35.047Z,8.97
2023-04-28T10:43:58.752Z,8.73
2023-04-28T10:47:24.412Z,8.00
2023-04-28T10:51:24.362Z,8.27
2023-04-28T10:55:36.160Z,9.20
2023-04-28T10:59:00.549Z,8.80
2023-04-28T11:02:45.008Z,8.63
2023-04-28T11:06:26.078Z,8.47
2023-04-28T11:09:50.166Z,9.00
2023-04-28T11:13:33.895Z,10.63
2023-04-28T11:16:59.820Z,7.47
2023-04-28T11:20:26.235Z,13.83
2023-04-28T11:23:51.770Z,12.13
2023-04-28T11:27:24.783Z,7.30
2023-04-28T11:30:48.822Z,9.17
2023-04-28T11:34:14.393Z,7.83
2023-04-28T11:37:38.015Z,8.90
2023-04-28T11:41:03.980Z,8.10
2023-04-28T11:44:29.026Z,9.47
2023-04-28T11:47:52.682Z,6.90
2023-04-28T11:51:33.566Z,8.97
2023-04-28T11:54:59.133Z,7.73
2023-04-28T11:58:25.231Z,8.77
2023-04-28T12:01:51.788Z,8.47
2023-04-28T12:05:15.570Z,8.27
2023-04-28T12:08:39.271Z,8.13
2023-04-28T12:12:04.881Z,8.30
2023-04-28T12:15:41.476Z,8.90
2023-04-28T12:19:07.935Z,8.20
2023-04-28T12:22:31.647Z,8.50
2023-04-28T12:25:55.423Z,8.70
2023-04-28T12:29:41.765Z,8.73
2023-04-28T12:33:07.529Z,8.20
2023-04-28T12:36:32.308Z,8.93
2023-04-28T12:39:57.233Z,10.93
2023-04-28T12:43:23.136Z,9.00
2023-04-28T12:46:48.119Z,8.63
2023-04-28T12:50:13.564Z,9.50
2023-04-28T12:53:37.184Z,9.00
2023-04-28T12:57:00.804Z,9.50
2023-04-28T13:00:25.167Z,9.40
2023-04-28T13:03:51.120Z,9.67
2023-04-28T13:07:17.329Z,8.83
2023-04-28T13:10:41.974Z,9.53
2023-04-28T13:14:05.775Z,8.60
2023-04-28T13:17:29.685Z,9.67
2023-04-28T13:20:53.531Z,9.23
2023-04-28T13:24:18.549Z,9.70
2023-04-28T13:27:43.428Z,10.43
2023-04-28T13:31:07.146Z,10.07
2023-04-28T13:34:31.246Z,10.37
2023-04-28T13:38:01.558Z,10.60
2023-04-28T13:41:27.160Z,10.60
2023-04-28T13:44:51.456Z,9.47
2023-04-28T13:48:15.118Z,9.90
2023-04-28T13:51:38.862Z,9.80
2023-04-28T13:55:02.544Z,9.77
2023-04-28T13:58:27.915Z,15.73
2023-04-28T14:01:51.694Z,10.43
2023-04-28T14:05:16.740Z,9.83
2023-04-28T14:08:40.368Z,9.70
2023-04-28T14:12:05.415Z,9.60
2023-04-28T14:15:31.206Z,9.37
2023-04-28T14:18:55.567Z,10.20
2023-04-28T14:22:19.592Z,9.70
2023-04-28T14:25:43.430Z,10.30
2023-04-28T14:29:07.134Z,9.90
2023-04-28T14:32:32.251Z,10.10
2023-04-28T14:35:55.999Z,11.23
2023-04-28T14:39:19.651Z,9.70
2023-04-28T14:42:44.025Z,10.57
2023-04-28T14:46:07.887Z,10.50
2023-04-28T14:49:32.972Z,12.13
2023-04-28T14:52:56.635Z,11.87
2023-04-28T14:56:20.718Z,11.17
2023-04-28T14:59:44.330Z,11.53
2023-04-28T15:03:08.056Z,12.00
2023-04-28T15:06:34.382Z,11.87
2023-04-28T15:09:58.631Z,11.90
2023-04-28T15:13:25.117Z,11.50
2023-04-28T15:16:49.002Z,11.13
2023-04-28T15:20:12.914Z,12.67
2023-04-28T15:23:37.904Z,11.77
2023-04-28T15:27:03.907Z,13.20
2023-04-28T15:30:27.678Z,12.17
2023-04-28T15:33:51.418Z,13.50
2023-04-28T15:37:43.311Z,11.40
2023-04-28T15:41:08.609Z,12.20
2023-04-28T15:44:32.228Z,11.80
2023-04-28T15:47:56.327Z,11.60
2023-04-28T15:51:20.050Z,11.30
2023-04-28T15:54:44.343Z,12.70
2023-04-28T15:58:10.790Z,12.50
2023-04-28T16:01:34.444Z,12.87
2023-04-28T16:04:58.611Z,14.30
2023-04-28T16:08:24.124Z,14.17
2023-04-28T16:11:48.525Z,13.10
2023-04-28T16:15:14.708Z,14.20
2023-04-28T16:18:38.478Z,13.50
2023-04-28T16:22:02.383Z,13.67
2023-04-28T16:25:26.255Z,13.07
2023-04-28T16:28:49.914Z,13.23
2023-04-28T16:32:15.479Z,14.87
2023-04-28T16:35:39.106Z,14.07
2023-04-28T16:39:02.914Z,12.77
2023-04-28T16:42:26.777Z,13.40
2023-04-28T16:45:50.394Z,13.00
2023-04-28T16:49:15.710Z,13.47
2023-04-28T16:52:39.510Z,14.23
2023-04-28T16:56:03.091Z,14.97
2023-04-28T16:59:29.488Z,13.80
2023-04-28T17:02:53.238Z,15.43
2023-04-28T17:06:18.203Z,14.93
2023-04-28T17:09:41.764Z,14.90
2023-04-28T17:13:05.447Z,14.87
2023-04-28T17:16:32.254Z,15.90
2023-04-28T17:19:56.944Z,15.70
2023-04-28T17:23:21.898Z,14.93
2023-04-28T17:26:45.729Z,15.63
2023-04-28T17:30:11.509Z,15.80
2023-04-28T17:33:35.383Z,16.03
2023-04-28T17:36:59.093Z,14.57
2023-04-28T17:40:24.374Z,10.47
2023-04-28T17:43:48.132Z,9.60
2023-04-28T17:47:11.839Z,8.30
2023-04-28T17:50:35.448Z,8.80
2023-04-28T17:53:59.186Z,8.63
2023-04-28T17:57:24.144Z,6.80
2023-04-28T18:00:47.909Z,6.77
2023-04-28T18:04:11.770Z,6.30
2023-04-28T18:07:35.414Z,7.53
2023-04-28T18:10:59.828Z,6.37
2023-04-28T18:14:25.757Z,6.93
2023-04-28T18:17:49.621Z,5.70
2023-04-28T18:21:13.293Z,6.30
2023-04-28T18:24:37.434Z,6.13
2023-04-28T18:28:01.088Z,6.13
2023-04-28T18:31:26.746Z,6.40
2023-04-28T18:34:50.674Z,7.43
2023-04-28T18:38:14.549Z,5.70
2023-04-28T18:41:39.403Z,8.90
2023-04-28T18:45:04.315Z,8.23
2023-04-28T18:48:29.296Z,9.70
2023-04-28T18:51:52.954Z,10.40
2023-04-28T18:55:17.112Z,15.33
2023-04-28T18:58:41.603Z,21.47
2023-04-28T19:02:05.396Z,11.77
2023-04-28T19:05:31.428Z,7.67
2023-04-28T19:08:55.188Z,8.40
2023-04-28T19:12:19.163Z,10.53
2023-04-28T19:15:42.802Z,8.10
2023-04-28T19:19:08.945Z,8.47
2023-04-28T19:22:36.710Z,7.30
2023-04-28T19:26:00.620Z,6.90
2023-04-28T19:29:24.314Z,8.50
2023-04-28T19:32:47.939Z,10.93
2023-04-28T19:36:11.528Z,8.30
2023-04-28T19:39:37.105Z,6.73
2023-04-28T19:43:01.058Z,7.37
2023-04-28T19:46:24.843Z,5.80
2023-04-28T19:53:12.877Z,7.27
2023-04-28T19:56:38.056Z,7.17
2023-04-28T20:00:01.697Z,6.70
2023-04-28T20:03:32.011Z,8.63
2023-04-28T20:06:55.895Z,5.93
2023-04-28T20:10:20.137Z,7.77
2023-04-28T20:13:45.160Z,8.60
2023-04-28T20:17:09.714Z,7.83
2023-04-28T20:20:33.388Z,7.00
2023-04-28T20:23:57.158Z,8.43
2023-04-28T20:27:21.861Z,8.07
2023-04-28T20:30:46.981Z,8.40
2023-04-28T20:34:10.642Z,8.03
2023-04-28T20:37:34.298Z,8.20
2023-04-28T20:40:59.222Z,8.43
2023-04-28T20:44:22.870Z,9.40
2023-04-28T20:47:47.887Z,10.03
2023-04-28T20:51:11.816Z,9.40
2023-04-28T20:54:36.143Z,10.30
2023-04-28T20:57:59.937Z,9.67
2023-04-28T21:01:23.821Z,12.13
2023-04-28T21:04:50.907Z,11.00
2023-04-28T21:08:14.638Z,10.20
2023-04-28T21:11:38.183Z,10.40
2023-04-28T21:15:01.795Z,9.87
2023-04-28T21:18:25.467Z,11.47
2023-04-28T21:21:51.013Z,11.07
2023-04-28T21:25:14.718Z,10.53
2023-04-28T21:28:39.790Z,10.93
2023-04-28T21:32:04.048Z,11.23
2023-04-28T21:35:28.679Z,12.23
2023-04-28T21:38:53.689Z,10.63
2023-04-28T21:42:17.263Z,11.57
2023-04-28T21:45:40.909Z,11.37
2023-04-28T21:49:04.494Z,11.10
2023-04-28T21:52:28.112Z,11.27
2023-04-28T21:55:53.096Z,11.33
2023-04-28T21:59:17.946Z,12.10
2023-04-28T22:02:42.950Z,10.87
2023-04-28T22:06:06.863Z,12.70
2023-04-28T22:09:30.547Z,11.90
2023-04-28T22:12:55.575Z,11.73
2023-04-28T22:16:19.429Z,11.53
2023-04-28T22:19:43.144Z,10.03
2023-04-28T22:23:06.892Z,11.03
2023-04-28T22:26:30.540Z,9.63
2023-04-28T22:29:55.560Z,9.50
2023-04-28T22:33:21.137Z,9.90
2023-04-28T22:36:45.008Z,10.73
2023-04-28T22:40:09.784Z,10.10
2023-04-28T22:43:33.415Z,9.13
2023-04-28T22:46:58.698Z,10.60
2023-04-28T22:50:22.556Z,11.40
2023-04-28T22:53:47.108Z,10.40
2023-04-28T22:57:10.984Z,10.27
2023-04-28T23:00:35.700Z,11.67
2023-04-28T23:04:00.908Z,12.20
2023-04-28T23:07:24.753Z,10.30
2023-04-28T23:10:48.691Z,12.20
2023-04-28T23:14:12.295Z,12.00
2023-04-28T23:17:36.013Z,11.33
2023-04-28T23:21:01.095Z,12.23
2023-04-28T23:24:26.521Z,11.77
2023-04-28T23:27:50.221Z,14.37
2023-04-28T23:31:14.192Z,12.43
2023-04-28T23:34:41.588Z,13.90
2023-04-28T23:38:07.002Z,16.90
2023-04-28T23:41:30.652Z,14.47
2023-04-28T23:44:54.405Z,15.47
2023-04-28T23:48:18.529Z,14.93
2023-04-28T23:51:42.344Z,17.67
2023-04-28T23:55:08.536Z,15.90
2023-04-28T23:58:32.572Z,16.67
